Time;durP1;ratioP1;P1;durP2;ratioP2;P2;SDS_P1;SDS_P2;PMS_P1;PMS_P2;Temp;Humidity;BMP_temperature;BMP_pressure;BME280_temperature;BME280_humidity;BME280_pressure;Samples;Min_cycle;Max_cycle;Signal;HPM_P1;HPM_P2
2021/05/21 00:01:54;;;;;;;4.80;3.70;;;15.20;79.00;;;;;;4945285;28;95563;-41
2021/05/21 00:04:26;;;;;;;4.22;3.15;;;15.10;79.00;;;;;;4952200;28;96484;-43
2021/05/21 00:06:57;;;;;;;4.97;3.25;;;15.10;79.00;;;;;;4949478;28;96942;-40
2021/05/21 00:09:28;;;;;;;4.30;2.88;;;15.10;79.00;;;;;;4949647;28;95689;-41
2021/05/21 00:12:00;;;;;;;3.17;2.85;;;15.20;79.00;;;;;;4951304;28;95857;-42
2021/05/21 00:14:31;;;;;;;4.65;2.33;;;15.10;79.00;;;;;;4951206;28;96120;-42
2021/05/21 00:17:04;;;;;;;4.20;2.85;;;15.10;79.00;;;;;;4948506;28;96043;-42
2021/05/21 00:19:38;;;;;;;3.30;2.70;;;15.10;79.00;;;;;;4949651;28;95894;-42
2021/05/21 00:22:08;;;;;;;3.60;2.38;;;15.10;79.00;;;;;;4950848;28;95967;-41
2021/05/21 00:24:40;;;;;;;4.30;2.70;;;15.10;79.10;;;;;;4949163;28;96154;-41
2021/05/21 00:27:10;;;;;;;3.78;2.97;;;15.00;79.00;;;;;;4950592;28;97739;-41
2021/05/21 00:29:40;;;;;;;3.78;2.90;;;15.10;79.10;;;;;;4947353;28;95185;-41
2021/05/21 00:32:10;;;;;;;4.20;3.25;;;15.10;79.10;;;;;;4948090;28;95438;-41
2021/05/21 00:34:40;;;;;;;2.92;2.50;;;15.10;79.20;;;;;;4949989;28;96099;-42
2021/05/21 00:37:11;;;;;;;5.25;3.33;;;15.10;79.20;;;;;;4951390;28;95558;-42
2021/05/21 00:39:43;;;;;;;3.60;2.88;;;15.10;79.20;;;;;;4947754;28;95427;-41
2021/05/21 00:42:14;;;;;;;4.13;2.60;;;15.00;79.20;;;;;;4949808;28;95447;-43
2021/05/21 00:44:54;;;;;;;4.60;2.42;;;15.10;79.20;;;;;;4947691;28;96475;-41
2021/05/21 00:47:26;;;;;;;5.13;2.85;;;15.00;79.20;;;;;;4947144;28;95834;-43
2021/05/21 00:49:57;;;;;;;3.83;2.97;;;15.00;79.30;;;;;;4949288;28;95604;-42
2021/05/21 00:52:29;;;;;;;3.17;2.83;;;15.00;79.40;;;;;;4952964;28;95644;-42
2021/05/21 00:55:01;;;;;;;5.25;3.08;;;15.00;79.50;;;;;;4949487;28;96350;-41
2021/05/21 00:57:32;;;;;;;4.00;2.95;;;15.00;79.60;;;;;;4953196;28;95630;-42
2021/05/21 01:00:07;;;;;;;4.25;2.85;;;15.00;79.50;;;;;;4948341;28;95314;-42
2021/05/21 01:02:38;;;;;;;3.67;2.55;;;15.00;80.00;;;;;;4947484;28;96331;-42
2021/05/21 01:05:11;;;;;;;4.50;2.95;;;15.10;79.90;;;;;;4947808;28;103158;-46
2021/05/21 01:07:43;;;;;;;3.53;2.97;;;15.10;80.00;;;;;;4944909;28;98319;-42
2021/05/21 01:10:13;;;;;;;5.13;3.10;;;15.20;79.90;;;;;;4946179;28;95911;-42
2021/05/21 01:12:45;;;;;;;4.50;3.03;;;15.20;79.90;;;;;;4953366;28;95889;-43
2021/05/21 01:15:17;;;;;;;4.40;3.38;;;15.20;79.80;;;;;;4944703;28;96457;-42
2021/05/21 01:17:48;;;;;;;4.35;2.70;;;15.10;79.80;;;;;;4948770;28;96457;-42
2021/05/21 01:20:18;;;;;;;5.15;3.45;;;15.10;80.00;;;;;;4947269;28;95679;-42
2021/05/21 01:22:50;;;;;;;4.50;2.78;;;15.10;80.00;;;;;;4951784;28;95578;-42
2021/05/21 01:25:21;;;;;;;4.43;3.08;;;15.10;80.00;;;;;;4948073;28;96650;-42
2021/05/21 01:27:51;;;;;;;3.90;3.00;;;15.10;80.00;;;;;;4949452;28;95798;-43
2021/05/21 01:30:23;;;;;;;4.07;2.85;;;15.20;80.10;;;;;;4942200;28;97548;-42
2021/05/21 01:32:55;;;;;;;6.07;3.40;;;15.20;80.00;;;;;;4930465;28;95922;-42
2021/05/21 01:35:28;;;;;;;4.78;3.20;;;15.20;80.00;;;;;;4926010;28;96060;-42
2021/05/21 01:37:59;;;;;;;5.25;2.85;;;15.20;80.10;;;;;;4942570;28;96011;-43
2021/05/21 01:40:31;;;;;;;6.53;3.30;;;15.10;80.10;;;;;;4929448;28;95271;-42
2021/05/21 01:43:03;;;;;;;7.65;3.75;;;15.10;80.50;;;;;;4930800;28;95702;-41
2021/05/21 01:45:34;;;;;;;8.43;4.43;;;15.30;80.00;;;;;;4927081;28;98023;-45
2021/05/21 01:48:09;;;;;;;7.50;3.70;;;15.30;79.30;;;;;;4930038;28;96099;-41
2021/05/21 01:50:40;;;;;;;6.35;3.70;;;15.30;79.40;;;;;;4930075;28;95549;-41
2021/05/21 01:53:12;;;;;;;5.60;3.50;;;15.30;79.60;;;;;;4927942;28;96836;-42
2021/05/21 01:55:50;;;;;;;9.25;4.35;;;15.30;79.70;;;;;;4931782;28;96470;-41
2021/05/21 01:58:22;;;;;;;6.75;4.38;;;15.40;79.80;;;;;;4928016;28;95780;-42
2021/05/21 02:00:53;;;;;;;6.78;4.63;;;15.40;79.80;;;;;;4925964;28;96794;-42
2021/05/21 02:03:24;;;;;;;6.37;3.53;;;15.40;79.80;;;;;;4928213;28;97674;-41
2021/05/21 02:06:00;;;;;;;7.68;3.85;;;15.40;79.80;;;;;;4930716;28;96511;-41
2021/05/21 02:08:31;;;;;;;7.38;3.63;;;15.40;79.80;;;;;;4926316;28;95859;-42
2021/05/21 02:11:05;;;;;;;5.57;3.40;;;15.40;79.70;;;;;;4930238;28;95383;-43
2021/05/21 02:13:36;;;;;;;5.28;3.10;;;15.50;79.80;;;;;;4927951;28;95481;-42
2021/05/21 02:16:08;;;;;;;7.22;3.55;;;15.50;79.70;;;;;;4932548;28;102295;-42
2021/05/21 02:18:39;;;;;;;;;;;15.50;79.70;;;;;;4942091;28;95872;-41
2021/05/21 02:21:09;;;;;;;5.57;3.50;;;15.50;79.70;;;;;;4951981;28;95699;-42
2021/05/21 02:23:40;;;;;;;5.43;3.40;;;15.50;79.70;;;;;;4946118;28;96318;-41
2021/05/21 02:26:10;;;;;;;5.35;3.03;;;15.50;79.60;;;;;;4948543;28;96438;-42
2021/05/21 02:28:40;;;;;;;4.18;3.33;;;15.60;79.50;;;;;;4943813;28;95960;-42
2021/05/21 02:31:11;;;;;;;5.57;3.05;;;15.70;79.40;;;;;;4945485;28;95785;-42
2021/05/21 02:33:42;;;;;;;;;;;15.70;79.40;;;;;;4945796;28;97348;-47
2021/05/21 02:36:14;;;;;;;5.85;2.58;;;15.80;79.50;;;;;;4929841;28;96794;-49
2021/05/21 02:38:44;;;;;;;;;;;15.80;79.40;;;;;;4961765;28;96981;-51
2021/05/21 02:41:15;;;;;;;3.92;2.15;;;15.90;79.30;;;;;;4945881;28;95741;-53
2021/05/21 02:43:47;;;;;;;3.35;2.10;;;16.10;79.40;;;;;;4935226;28;96498;-56
2021/05/21 02:46:17;;;;;;;5.22;2.35;;;16.20;79.20;;;;;;4933624;28;96882;-54
2021/05/21 02:48:48;;;;;;;2.63;1.85;;;16.40;79.20;;;;;;4936000;28;95914;-49
2021/05/21 02:51:20;;;;;;;3.97;2.33;;;16.50;79.00;;;;;;4937308;28;96089;-50
2021/05/21 02:53:52;;;;;;;7.03;2.38;;;16.70;78.40;;;;;;4939859;28;95570;-50
2021/05/21 02:56:22;;;;;;;4.03;2.50;;;16.80;78.40;;;;;;4946960;28;98087;-50
2021/05/21 02:58:52;;;;;;;3.43;2.03;;;17.00;78.40;;;;;;4944471;28;95867;-48
2021/05/21 03:01:24;;;;;;;4.15;2.30;;;17.10;78.30;;;;;;4942499;28;95849;-41
2021/05/21 03:03:55;;;;;;;3.25;2.05;;;17.20;78.10;;;;;;4945975;28;95836;-40
2021/05/21 03:06:26;;;;;;;3.05;1.95;;;17.20;77.20;;;;;;4948401;28;96076;-41
2021/05/21 03:08:57;;;;;;;4.68;2.70;;;17.20;77.10;;;;;;4942872;28;96380;-41
2021/05/21 03:11:29;;;;;;;4.60;2.03;;;17.20;77.20;;;;;;4946525;28;95667;-41
2021/05/21 03:14:01;;;;;;;3.53;2.10;;;17.20;77.30;;;;;;4946667;28;96045;-41
2021/05/21 03:16:32;;;;;;;3.20;1.98;;;17.20;77.20;;;;;;4940860;28;96683;-41
2021/05/21 03:19:03;;;;;;;;;;;17.20;77.20;;;;;;4945953;28;95901;-41
2021/05/21 03:21:34;;;;;;;3.07;2.00;;;17.20;77.10;;;;;;4944825;28;96083;-41
2021/05/21 03:24:05;;;;;;;3.38;2.15;;;17.10;77.00;;;;;;4948943;28;96125;-41
2021/05/21 03:26:36;;;;;;;2.20;1.92;;;17.20;76.80;;;;;;4945308;28;96856;-41
2021/05/21 03:29:06;;;;;;;3.13;1.90;;;17.20;77.20;;;;;;4947444;28;96026;-42
2021/05/21 03:31:36;;;;;;;2.95;2.13;;;17.20;76.60;;;;;;4943177;28;95692;-42
2021/05/21 03:34:10;;;;;;;3.85;1.85;;;17.20;76.70;;;;;;4948425;28;95618;-41
2021/05/21 03:36:41;;;;;;;2.50;1.90;;;17.30;76.80;;;;;;4941294;28;96400;-41
2021/05/21 03:39:14;;;;;;;2.45;1.73;;;17.30;76.70;;;;;;4949065;28;95692;-41
2021/05/21 03:41:45;;;;;;;4.32;2.05;;;17.30;76.60;;;;;;4957571;28;95606;-41
2021/05/21 03:44:16;;;;;;;;;;;17.30;76.60;;;;;;4963630;28;95348;-43
2021/05/21 03:46:47;;;;;;;3.20;1.73;;;17.30;76.60;;;;;;4928137;28;96356;-42
2021/05/21 03:49:19;;;;;;;4.63;2.17;;;17.40;76.60;;;;;;4927340;28;97077;-41
2021/05/21 03:51:50;;;;;;;;;;;17.40;76.50;;;;;;4925029;28;95971;-43
2021/05/21 03:54:21;;;;;;;4.25;1.80;;;17.40;76.40;;;;;;4930491;28;96064;-42
2021/05/21 03:56:54;;;;;;;3.55;2.03;;;17.40;76.40;;;;;;4924500;28;95918;-41
2021/05/21 03:59:26;;;;;;;2.90;1.60;;;17.50;76.40;;;;;;4929027;28;95813;-42
2021/05/21 04:01:56;;;;;;;2.90;1.70;;;17.50;76.40;;;;;;4934669;28;95622;-41
2021/05/21 04:04:27;;;;;;;2.95;2.17;;;17.50;76.30;;;;;;4958917;28;95694;-43
2021/05/21 04:06:58;;;;;;;;;;;17.60;76.40;;;;;;4943464;28;96164;-44
2021/05/21 04:09:31;;;;;;;2.08;1.75;;;17.60;76.40;;;;;;4946384;28;96119;-41
2021/05/21 04:12:02;;;;;;;3.65;2.78;;;17.60;76.40;;;;;;4944163;28;95288;-42
2021/05/21 04:14:34;;;;;;;3.75;3.00;;;17.60;76.30;;;;;;4945944;28;96046;-41
2021/05/21 04:17:05;;;;;;;2.70;2.05;;;17.60;76.30;;;;;;4939401;28;96739;-42
2021/05/21 04:19:36;;;;;;;2.95;1.85;;;17.70;76.40;;;;;;4944326;28;96263;-41
2021/05/21 04:22:06;;;;;;;2.57;2.20;;;17.70;76.30;;;;;;4941224;28;96058;-41
2021/05/21 04:24:37;;;;;;;2.55;1.98;;;17.70;76.30;;;;;;4947032;28;95813;-41
2021/05/21 04:27:09;;;;;;;;;;;17.70;76.20;;;;;;4947651;28;97117;-44
2021/05/21 04:29:39;;;;;;;2.35;1.73;;;17.80;76.30;;;;;;4949006;28;95771;-41
2021/05/21 04:32:09;;;;;;;5.32;2.35;;;17.80;76.20;;;;;;4944690;28;95675;-41
2021/05/21 04:34:42;;;;;;;3.40;1.83;;;17.80;76.20;;;;;;4949931;28;95412;-41
2021/05/21 04:37:14;;;;;;;3.45;2.25;;;17.80;76.20;;;;;;4949289;28;98033;-42
2021/05/21 04:39:45;;;;;;;2.90;2.28;;;17.80;76.20;;;;;;4946549;28;96271;-41
2021/05/21 04:42:19;;;;;;;3.70;1.60;;;17.80;76.30;;;;;;4951188;28;95632;-41
2021/05/21 04:44:51;;;;;;;2.58;1.73;;;17.90;76.20;;;;;;4948109;28;95679;-41
2021/05/21 04:47:23;;;;;;;4.05;1.88;;;17.90;76.20;;;;;;4946339;28;96498;-41
2021/05/21 04:49:54;;;;;;;2.70;1.70;;;17.90;76.10;;;;;;4948383;28;95627;-42
2021/05/21 04:52:26;;;;;;;3.80;1.80;;;17.90;76.10;;;;;;4951482;28;95284;-41
2021/05/21 04:54:58;;;;;;;2.85;1.70;;;17.90;76.10;;;;;;4943896;28;95800;-43
2021/05/21 04:57:29;;;;;;;;;;;17.90;76.00;;;;;;4948442;28;96088;-43
2021/05/21 04:59:59;;;;;;;4.00;1.67;;;18.00;76.00;;;;;;4947232;28;95833;-41
2021/05/21 05:02:30;;;;;;;2.92;2.00;;;18.00;75.90;;;;;;4946381;28;96372;-41
2021/05/21 05:05:03;;;;;;;;;;;18.00;76.00;;;;;;4945385;28;96040;-42
2021/05/21 05:07:36;;;;;;;1.67;1.50;;;18.00;75.90;;;;;;4949134;28;96035;-43
2021/05/21 05:10:09;;;;;;;1.92;1.50;;;18.10;76.00;;;;;;4946241;28;95940;-42
2021/05/21 05:12:41;;;;;;;3.25;1.55;;;18.10;76.50;;;;;;4949022;28;96041;-41
2021/05/21 05:15:15;;;;;;;3.70;2.25;;;18.10;75.90;;;;;;4947073;28;98412;-42
2021/05/21 05:17:51;;;;;;;4.05;1.63;;;18.10;75.90;;;;;;4944833;28;97071;-42
2021/05/21 05:20:23;;;;;;;3.15;1.98;;;18.20;76.00;;;;;;4946527;28;96597;-48
2021/05/21 05:22:54;;;;;;;3.08;1.92;;;18.20;75.90;;;;;;4950641;28;95985;-42
2021/05/21 05:25:24;;;;;;;1.93;1.77;;;18.30;75.80;;;;;;4945457;28;96082;-42
2021/05/21 05:27:56;;;;;;;3.08;1.60;;;18.30;75.90;;;;;;4949831;28;96127;-42
2021/05/21 05:30:29;;;;;;;2.10;1.40;;;18.40;75.80;;;;;;4941217;28;96850;-46
2021/05/21 05:32:59;;;;;;;2.00;1.42;;;18.40;75.80;;;;;;4948709;28;95590;-42
2021/05/21 05:35:30;;;;;;;2.85;1.52;;;18.40;75.60;;;;;;4938848;28;96361;-42
2021/05/21 05:38:02;;;;;;;2.65;1.30;;;18.40;75.50;;;;;;4946437;28;96100;-42
2021/05/21 05:40:36;;;;;;;3.30;2.22;;;18.40;75.60;;;;;;4946558;28;96586;-42
2021/05/21 05:43:07;;;;;;;4.63;1.85;;;18.40;75.70;;;;;;4950001;28;95837;-42
2021/05/21 05:45:38;;;;;;;6.00;2.28;;;18.40;75.70;;;;;;4941102;28;95913;-42
2021/05/21 05:48:09;;;;;;;4.88;2.17;;;18.40;75.90;;;;;;4948980;28;96158;-42
2021/05/21 05:50:42;;;;;;;4.53;1.77;;;18.40;76.40;;;;;;4946383;28;96350;-42
2021/05/21 05:53:12;;;;;;;4.25;1.73;;;18.40;75.90;;;;;;4950984;28;96171;-43
2021/05/21 05:55:46;;;;;;;4.03;2.28;;;18.40;75.90;;;;;;4946281;28;95797;-43
2021/05/21 05:58:17;;;;;;;4.38;1.75;;;18.40;75.90;;;;;;4951486;28;99719;-43
2021/05/21 06:00:47;;;;;;;4.82;1.77;;;18.50;76.00;;;;;;4941978;28;95825;-42
2021/05/21 06:03:19;;;;;;;5.63;2.17;;;18.40;76.00;;;;;;4949869;28;95222;-42
2021/05/21 06:05:51;;;;;;;4.57;1.85;;;18.50;76.00;;;;;;4947567;28;96122;-42
2021/05/21 06:08:21;;;;;;;3.65;1.58;;;18.50;76.00;;;;;;4946779;28;96017;-42
2021/05/21 06:10:52;;;;;;;2.40;1.52;;;18.50;76.00;;;;;;4949758;28;95839;-43
2021/05/21 06:13:26;;;;;;;3.58;1.77;;;18.50;76.00;;;;;;4949453;28;95982;-43
2021/05/21 06:15:57;;;;;;;3.75;1.75;;;18.50;75.90;;;;;;4944910;28;95588;-42
2021/05/21 06:18:29;;;;;;;3.08;1.48;;;18.50;76.00;;;;;;4945669;28;96065;-42
2021/05/21 06:21:00;;;;;;;3.78;1.90;;;18.50;75.90;;;;;;4948511;28;95696;-42
2021/05/21 06:23:31;;;;;;;3.40;1.63;;;18.40;75.90;;;;;;4947143;28;95212;-43
2021/05/21 06:28:43;;;;;;;4.30;1.40;;;18.40;75.90;;;;;;4946131;28;96069;-43
2021/05/21 06:31:13;;;;;;;3.30;1.55;;;18.40;75.80;;;;;;4943328;28;95675;-43
2021/05/21 06:33:43;;;;;;;2.40;1.50;;;18.40;75.80;;;;;;4946522;28;95891;-43
2021/05/21 06:36:14;;;;;;;2.90;1.60;;;18.40;76.50;;;;;;4948150;28;95977;-47
2021/05/21 06:38:45;;;;;;;5.78;1.77;;;18.40;75.90;;;;;;4945551;28;96697;-44
2021/05/21 06:41:15;;;;;;;2.07;1.33;;;18.40;75.90;;;;;;4949588;28;95814;-46
2021/05/21 06:43:46;;;;;;;2.28;1.63;;;18.40;75.90;;;;;;4945602;28;96097;-43
2021/05/21 06:46:21;;;;;;;2.97;1.58;;;18.40;75.80;;;;;;4945483;28;95517;-43
2021/05/21 06:48:53;;;;;;;3.70;1.67;;;18.40;75.90;;;;;;4945049;28;96520;-45
2021/05/21 06:51:24;;;;;;;2.92;1.60;;;18.40;75.80;;;;;;4949968;28;95686;-41
2021/05/21 06:53:54;;;;;;;2.92;1.80;;;18.40;75.80;;;;;;4945500;28;95873;-45
2021/05/21 06:56:25;;;;;;;3.35;1.90;;;18.40;75.80;;;;;;4950202;28;97624;-43
2021/05/21 06:58:57;;;;;;;2.33;1.77;;;18.40;75.90;;;;;;4946411;28;96103;-42
2021/05/21 07:01:29;;;;;;;2.92;1.50;;;18.30;75.80;;;;;;4946040;28;96005;-43
2021/05/21 07:04:00;;;;;;;1.70;1.35;;;18.30;75.80;;;;;;4946811;28;97511;-42
2021/05/21 07:06:30;;;;;;;2.88;1.67;;;18.30;75.80;;;;;;4950233;28;95348;-42
2021/05/21 07:09:00;;;;;;;2.28;1.63;;;18.30;75.80;;;;;;4945234;28;96273;-43
2021/05/21 07:11:32;;;;;;;2.50;1.90;;;18.30;75.80;;;;;;4948221;28;95969;-42
2021/05/21 07:14:08;;;;;;;3.33;1.80;;;18.20;75.70;;;;;;4946634;28;95756;-42
2021/05/21 07:16:40;;;;;;;2.95;1.40;;;18.20;75.70;;;;;;4942919;28;95894;-42
2021/05/21 07:19:13;;;;;;;4.22;2.25;;;18.20;75.80;;;;;;4941755;28;96497;-43
2021/05/21 07:22:06;;;;;;;2.50;1.60;;;18.10;75.80;;;;;;4944719;28;96118;-42
2021/05/21 07:24:36;;;;;;;2.78;2.03;;;18.10;75.80;;;;;;4945521;28;97131;-44
2021/05/21 07:27:06;;;;;;;1.80;1.58;;;18.10;75.90;;;;;;4948032;28;95511;-42
2021/05/21 07:29:36;;;;;;;3.17;1.75;;;18.00;75.80;;;;;;4945608;28;96066;-42
2021/05/21 07:32:10;;;;;;;3.30;2.33;;;18.00;75.80;;;;;;4938199;28;95831;-42
2021/05/21 07:34:44;;;;;;;4.40;2.33;;;17.90;75.80;;;;;;4942400;28;95607;-42
2021/05/21 07:37:15;;;;;;;2.90;2.58;;;17.90;75.80;;;;;;4947109;28;95758;-42
2021/05/21 07:39:47;;;;;;;3.72;2.42;;;17.90;75.90;;;;;;4942558;28;96579;-42
2021/05/21 07:42:18;;;;;;;4.22;2.50;;;17.80;75.90;;;;;;4944025;28;96086;-42
2021/05/21 07:44:49;;;;;;;;;;;17.80;75.90;;;;;;4943400;28;96251;-42
2021/05/21 07:47:21;;;;;;;4.93;2.45;;;17.80;75.90;;;;;;4945764;28;95727;-43
2021/05/21 07:49:52;;;;;;;4.93;2.92;;;17.70;75.90;;;;;;4946918;28;97250;-42
2021/05/21 07:52:23;;;;;;;5.95;2.97;;;17.70;76.00;;;;;;4949987;28;95801;-44
2021/05/21 07:54:54;;;;;;;3.67;2.78;;;17.70;76.10;;;;;;4950689;28;95699;-43
2021/05/21 07:57:26;;;;;;;4.20;2.63;;;17.60;76.10;;;;;;4949589;28;95189;-43
2021/05/21 07:59:57;;;;;;;5.38;3.13;;;17.60;76.00;;;;;;4948441;28;96123;-43
2021/05/21 08:02:27;;;;;;;4.72;2.63;;;17.60;76.10;;;;;;4948641;28;95947;-44
2021/05/21 08:04:57;;;;;;;4.57;2.90;;;17.50;76.00;;;;;;4953673;28;95378;-43
2021/05/21 08:07:27;;;;;;;4.47;2.80;;;17.50;75.90;;;;;;4950272;28;95972;-43
2021/05/21 08:10:01;;;;;;;4.68;2.75;;;17.50;75.90;;;;;;4951246;28;96041;-43
2021/05/21 08:12:33;;;;;;;4.18;2.60;;;17.40;75.90;;;;;;4943383;28;95821;-43
2021/05/21 08:15:05;;;;;;;;;;;17.40;75.90;;;;;;4949665;28;95850;-44
2021/05/21 08:17:37;;;;;;;4.57;2.92;;;17.40;75.70;;;;;;4942888;28;95939;-45
2021/05/21 08:20:14;;;;;;;4.85;3.25;;;17.40;76.10;;;;;;4949527;28;96272;-43
2021/05/21 08:22:44;;;;;;;4.82;3.00;;;17.40;76.00;;;;;;4945864;28;96400;-50
2021/05/21 08:25:16;;;;;;;4.68;2.90;;;17.40;76.10;;;;;;4950198;28;95963;-46
2021/05/21 08:27:46;;;;;;;8.52;3.33;;;17.40;76.00;;;;;;4947374;28;95612;-45
2021/05/21 08:30:17;;;;;;;6.85;3.50;;;17.50;75.90;;;;;;4944577;28;96701;-47
2021/05/21 08:32:49;;;;;;;5.45;4.07;;;17.50;75.90;;;;;;4943628;28;102723;-46
2021/05/21 08:35:26;;;;;;;8.57;5.05;;;17.50;75.80;;;;;;4943515;28;95718;-46
2021/05/21 08:37:59;;;;;;;5.07;3.78;;;17.50;75.90;;;;;;4940427;28;95912;-44
2021/05/21 08:40:36;;;;;;;8.40;3.42;;;17.40;75.80;;;;;;4946089;28;96565;-46
2021/05/21 08:43:12;;;;;;;5.20;4.30;;;17.40;75.70;;;;;;4942936;28;95366;-45
2021/05/21 08:45:44;;;;;;;6.70;4.80;;;17.40;75.80;;;;;;4944514;28;95923;-45
2021/05/21 08:48:20;;;;;;;8.38;4.93;;;17.40;75.70;;;;;;4946066;28;96096;-45
2021/05/21 08:50:55;;;;;;;8.65;5.45;;;17.30;75.70;;;;;;4949136;28;97762;-44
2021/05/21 08:53:26;;;;;;;;;;;17.30;75.80;;;;;;4946116;28;95682;-47
2021/05/21 08:55:59;;;;;;;6.60;4.28;;;17.30;75.70;;;;;;4947419;28;95886;-48
2021/05/21 08:58:31;;;;;;;6.05;4.70;;;17.30;75.70;;;;;;4946490;28;95515;-46
2021/05/21 09:01:06;;;;;;;7.35;4.57;;;17.30;75.50;;;;;;4944773;28;96076;-46
2021/05/21 09:03:36;;;;;;;8.77;4.85;;;17.30;75.60;;;;;;4941736;28;96052;-45
2021/05/21 09:08:53;;;;;;;8.90;5.07;;;17.30;75.60;;;;;;4944320;28;95387;-47
2021/05/21 09:11:43;;;;;;;9.63;5.47;;;17.30;75.50;;;;;;4944085;28;95959;-46
2021/05/21 09:14:20;;;;;;;8.00;5.10;;;17.30;75.60;;;;;;4942771;28;98590;-46
2021/05/21 09:16:55;;;;;;;9.00;5.68;;;17.30;75.70;;;;;;4943378;28;98063;-47
2021/05/21 09:19:29;;;;;;;9.40;5.43;;;17.20;75.60;;;;;;4943521;28;95491;-47
2021/05/21 09:22:06;;;;;;;9.05;5.85;;;17.20;75.70;;;;;;4947138;28;96701;-47
2021/05/21 09:24:46;;;;;;;7.38;5.22;;;17.20;75.70;;;;;;4943937;28;95823;-46
2021/05/21 09:27:18;;;;;;;10.43;5.57;;;17.20;75.60;;;;;;4944397;28;95636;-52
2021/05/21 09:29:50;;;;;;;10.02;6.38;;;17.20;75.70;;;;;;4946376;28;96868;-47
2021/05/21 09:32:24;;;;;;;9.18;5.50;;;17.20;75.60;;;;;;4959455;28;96282;-46
2021/05/21 09:35:11;;;;;;;9.15;5.47;;;17.20;75.50;;;;;;4939771;28;95748;-47
2021/05/21 09:37:51;;;;;;;9.30;6.38;;;17.10;75.50;;;;;;4946542;28;95411;-46
2021/05/21 09:40:28;;;;;;;10.18;6.05;;;17.10;75.50;;;;;;4944245;28;95439;-47
2021/05/21 09:43:00;;;;;;;9.00;5.93;;;17.00;75.50;;;;;;4947748;28;96327;-47
2021/05/21 09:45:35;;;;;;;11.60;6.63;;;17.00;75.40;;;;;;4938201;28;95659;-45
2021/05/21 09:48:12;;;;;;;10.07;6.10;;;17.00;75.50;;;;;;4947727;28;95799;-47
2021/05/21 09:50:50;;;;;;;12.30;6.07;;;17.00;75.60;;;;;;4946012;28;97270;-47
2021/05/21 09:53:23;;;;;;;10.68;7.03;;;16.90;75.50;;;;;;4947402;28;96668;-46
2021/05/21 09:55:57;;;;;;;9.27;6.65;;;16.90;75.40;;;;;;4943263;28;95869;-48
2021/05/21 09:58:51;;;;;;;11.27;5.97;;;16.90;75.70;;;;;;4947680;28;95835;-48
2021/05/21 10:01:23;;;;;;;11.15;6.55;;;16.90;75.50;;;;;;4941418;28;96109;-49
2021/05/21 10:04:00;;;;;;;8.52;6.63;;;16.80;75.50;;;;;;4944705;28;96707;-49
2021/05/21 10:06:35;;;;;;;13.90;7.73;;;16.80;75.60;;;;;;4942606;28;100228;-48
2021/05/21 10:09:06;;;;;;;9.40;7.00;;;16.70;75.50;;;;;;4938565;28;95716;-47
2021/05/21 10:11:42;;;;;;;10.32;6.80;;;16.70;75.70;;;;;;4943562;28;95565;-47
2021/05/21 10:14:15;;;;;;;10.93;6.65;;;16.70;76.30;;;;;;4942342;28;96027;-45
2021/05/21 10:16:48;;;;;;;9.60;7.13;;;16.60;75.60;;;;;;4935848;28;96242;-46
2021/05/21 10:19:27;;;;;;;11.15;7.53;;;16.60;75.60;;;;;;4944164;28;95948;-47
2021/05/21 10:22:01;;;;;;;12.65;7.57;;;16.50;75.60;;;;;;4942483;28;95316;-44
2021/05/21 10:24:40;;;;;;;11.15;6.90;;;16.50;75.60;;;;;;4943768;28;96349;-45
2021/05/21 10:27:21;;;;;;;12.80;8.05;;;16.50;75.60;;;;;;4942348;28;95795;-47
2021/05/21 10:30:00;;;;;;;12.90;8.07;;;16.50;75.60;;;;;;4942053;28;97098;-47
2021/05/21 10:32:36;;;;;;;11.68;7.30;;;16.40;75.60;;;;;;4940692;28;96210;-47
2021/05/21 10:35:21;;;;;;;12.43;8.18;;;16.40;75.60;;;;;;4942757;28;95896;-45
2021/05/21 10:38:19;;;;;;;11.35;8.07;;;16.40;75.70;;;;;;4942089;28;96098;-46
2021/05/21 10:41:19;;;;;;;9.70;7.43;;;16.30;75.60;;;;;;4944734;28;95751;-45
2021/05/21 10:43:59;;;;;;;11.52;8.05;;;16.30;75.70;;;;;;4959352;28;95871;-45
2021/05/21 10:46:44;;;;;;;12.85;8.70;;;16.30;75.60;;;;;;4946853;28;98365;-45
2021/05/21 10:49:26;;;;;;;13.57;8.05;;;16.20;75.50;;;;;;4938281;28;96464;-49
2021/05/21 10:52:02;;;;;;;11.52;8.32;;;16.20;75.60;;;;;;4942043;28;95865;-47
2021/05/21 10:54:37;;;;;;;13.27;8.55;;;16.20;75.60;;;;;;4932705;28;95504;-46
2021/05/21 10:57:16;;;;;;;12.13;8.35;;;16.20;75.50;;;;;;4944661;28;95817;-48
2021/05/21 10:59:56;;;;;;;14.20;9.25;;;16.10;75.50;;;;;;4945986;28;95967;-47
2021/05/21 11:02:44;;;;;;;13.13;9.18;;;16.10;75.50;;;;;;4939230;28;96507;-47
2021/05/21 11:05:27;;;;;;;11.98;8.20;;;16.10;75.50;;;;;;4942408;28;96027;-48
2021/05/21 11:08:03;;;;;;;12.40;8.95;;;16.00;75.50;;;;;;4940881;28;96073;-47
2021/05/21 11:10:33;;;;;;;14.73;8.70;;;16.00;75.50;;;;;;4946095;28;95780;-47
2021/05/21 11:13:27;;;;;;;13.32;9.00;;;16.00;75.50;;;;;;4943205;28;96540;-48
2021/05/21 11:16:02;;;;;;;12.20;8.30;;;16.00;75.60;;;;;;4941973;28;98094;-48
2021/05/21 11:18:34;;;;;;;12.40;8.07;;;16.00;75.60;;;;;;4940978;28;97699;-48
2021/05/21 11:21:17;;;;;;;14.20;8.63;;;15.90;75.50;;;;;;4943348;28;96424;-48
2021/05/21 11:23:50;;;;;;;10.45;8.25;;;15.90;75.60;;;;;;4942731;28;96058;-47
2021/05/21 11:26:26;;;;;;;11.57;8.70;;;15.90;75.50;;;;;;4946606;28;95417;-46
2021/05/21 11:29:02;;;;;;;11.77;8.23;;;15.80;75.60;;;;;;4942896;28;97327;-48
2021/05/21 11:31:34;;;;;;;12.40;8.80;;;15.70;75.60;;;;;;4930996;28;95443;-50
2021/05/21 11:34:09;;;;;;;;;;;15.80;75.50;;;;;;4923021;28;95466;-47
2021/05/21 11:36:41;;;;;;;10.60;8.43;;;15.80;75.60;;;;;;4928181;28;96057;-46
2021/05/21 11:39:12;;;;;;;13.85;10.05;;;15.70;75.50;;;;;;4920846;28;96050;-46
2021/05/21 11:41:44;;;;;;;12.10;8.82;;;15.70;75.60;;;;;;4924204;28;96110;-47
2021/05/21 11:44:16;;;;;;;14.52;9.00;;;15.70;75.60;;;;;;4921473;28;95402;-47
2021/05/21 11:46:48;;;;;;;13.25;9.65;;;15.60;75.60;;;;;;4936454;28;95959;-47
2021/05/21 11:49:19;;;;;;;16.20;9.52;;;15.60;75.60;;;;;;4947838;28;96531;-51
2021/05/21 11:52:05;;;;;;;13.18;9.18;;;15.60;75.70;;;;;;4949770;28;96020;-48
2021/05/21 11:54:41;;;;;;;14.95;9.52;;;15.50;75.60;;;;;;4958549;28;96205;-50
2021/05/21 11:57:17;;;;;;;12.25;9.38;;;15.50;75.50;;;;;;4951129;28;95416;-49
2021/05/21 11:59:49;;;;;;;11.65;8.68;;;15.50;75.50;;;;;;4947818;28;101314;-49
2021/05/21 12:02:22;;;;;;;12.77;10.50;;;15.50;75.50;;;;;;4929120;28;96040;-50
2021/05/21 12:04:53;;;;;;;13.55;10.27;;;15.50;75.50;;;;;;4927370;28;95908;-48
2021/05/21 12:07:25;;;;;;;10.98;7.88;;;15.40;75.40;;;;;;4929701;28;95960;-49
2021/05/21 12:10:04;;;;;;;12.20;9.27;;;15.40;75.50;;;;;;4926505;28;96679;-49
2021/05/21 12:12:37;;;;;;;12.23;8.55;;;15.30;75.50;;;;;;4929794;28;95811;-48
2021/05/21 12:15:20;;;;;;;13.82;9.68;;;15.30;75.50;;;;;;4924677;28;96081;-49
2021/05/21 12:17:50;;;;;;;13.98;9.98;;;15.30;75.40;;;;;;4923040;28;95466;-49
2021/05/21 12:20:23;;;;;;;14.43;9.40;;;15.30;75.40;;;;;;4925477;28;96205;-49
2021/05/21 12:23:08;;;;;;;13.00;9.73;;;15.30;75.40;;;;;;4929330;28;96713;-48
2021/05/21 12:25:38;;;;;;;12.75;8.70;;;15.30;75.30;;;;;;4925818;28;95713;-49
2021/05/21 12:28:09;;;;;;;13.30;9.27;;;15.20;75.30;;;;;;4928627;28;96035;-48
2021/05/21 12:30:40;;;;;;;;;;;15.20;75.40;;;;;;4920763;28;96511;-47
2021/05/21 12:33:12;;;;;;;14.45;9.25;;;15.20;75.40;;;;;;4928291;28;95930;-47
2021/05/21 12:35:44;;;;;;;14.60;10.10;;;15.10;75.30;;;;;;4928675;28;95868;-47
2021/05/21 12:38:18;;;;;;;15.00;9.77;;;15.10;75.50;;;;;;4926863;28;96129;-48
2021/05/21 12:40:59;;;;;;;12.10;9.85;;;15.10;75.40;;;;;;4929591;28;96681;-49
2021/05/21 12:43:31;;;;;;;13.07;8.53;;;15.10;75.50;;;;;;4927050;28;95860;-48
2021/05/21 12:46:03;;;;;;;13.07;9.45;;;15.10;75.50;;;;;;4930125;28;95856;-50
2021/05/21 12:48:44;;;;;;;10.82;8.05;;;15.00;75.30;;;;;;4946308;28;95862;-48
2021/05/21 12:51:19;;;;;;;12.77;9.23;;;15.00;75.40;;;;;;4950337;28;97072;-50
2021/05/21 12:53:52;;;;;;;13.30;9.30;;;15.00;75.30;;;;;;4943366;28;104114;-46
2021/05/21 12:56:34;;;;;;;13.90;9.40;;;15.00;75.30;;;;;;4950137;28;95833;-50
2021/05/21 12:59:11;;;;;;;12.20;8.63;;;14.90;75.30;;;;;;4948116;28;95385;-48
2021/05/21 13:01:42;;;;;;;12.38;8.88;;;14.90;75.30;;;;;;4942320;28;96243;-46
2021/05/21 13:04:14;;;;;;;14.85;10.23;;;14.90;75.30;;;;;;4947108;28;95917;-48
2021/05/21 13:06:47;;;;;;;12.95;8.88;;;14.90;75.30;;;;;;4948983;28;97900;-49
2021/05/21 13:09:18;;;;;;;15.40;9.20;;;14.80;75.20;;;;;;4946265;28;96240;-48
2021/05/21 13:12:03;;;;;;;14.05;10.20;;;14.80;75.20;;;;;;4949884;28;96736;-49
2021/05/21 13:14:44;;;;;;;13.15;9.70;;;14.80;75.20;;;;;;4944235;28;96041;-48
2021/05/21 13:17:19;;;;;;;11.82;9.82;;;14.70;75.20;;;;;;4950193;28;98117;-47
2021/05/21 13:19:50;;;;;;;15.23;10.68;;;14.70;75.20;;;;;;4946750;28;95720;-47
2021/05/21 13:22:24;;;;;;;15.25;10.90;;;14.70;75.20;;;;;;4947316;28;97024;-48
2021/05/21 13:24:58;;;;;;;13.82;10.32;;;14.70;75.20;;;;;;4948178;28;95962;-47